createdAt,value
2018-06-28T00:00:00.552Z,14.53
2018-06-28T00:02:29.574Z,15.20
2018-06-28T00:04:58.668Z,14.53
2018-06-28T00:07:27.707Z,15.03
2018-06-28T00:09:56.433Z,15.23
2018-06-28T00:12:25.463Z,14.73
2018-06-28T00:14:54.462Z,14.90
2018-06-28T00:17:23.692Z,15.30
2018-06-28T00:19:52.746Z,17.60
2018-06-28T00:22:21.504Z,16.10
2018-06-28T00:24:50.468Z,16.67
2018-06-28T00:27:19.498Z,16.73
2018-06-28T00:29:48.352Z,16.60
2018-06-28T00:32:17.310Z,16.53
2018-06-28T00:34:46.409Z,17.53
2018-06-28T00:37:15.119Z,18.30
2018-06-28T00:39:44.364Z,17.40
2018-06-28T00:42:13.395Z,17.80
2018-06-28T00:44:42.808Z,17.97
2018-06-28T00:47:11.828Z,17.43
2018-06-28T00:49:40.855Z,18.20
2018-06-28T00:52:09.916Z,19.43
2018-06-28T00:54:39.152Z,19.00
2018-06-28T00:57:08.766Z,17.57
2018-06-28T00:59:38.093Z,16.90
2018-06-28T01:02:07.185Z,17.73
2018-06-28T01:04:36.203Z,19.03
2018-06-28T01:07:05.415Z,17.90
2018-06-28T01:09:34.473Z,17.40
2018-06-28T01:12:03.431Z,19.00
2018-06-28T01:14:32.376Z,18.37
2018-06-28T01:17:01.485Z,19.00
2018-06-28T01:19:30.695Z,20.83
2018-06-28T01:21:59.800Z,19.50
2018-06-28T01:24:28.502Z,21.20
2018-06-28T01:26:57.533Z,19.57
2018-06-28T01:29:26.592Z,21.47
2018-06-28T01:31:55.685Z,22.50
2018-06-28T01:34:24.704Z,20.23
2018-06-28T01:36:53.411Z,21.03
2018-06-28T01:39:22.379Z,22.30
2018-06-28T01:42:02.584Z,20.77
2018-06-28T01:44:31.583Z,20.27
2018-06-28T01:47:00.611Z,23.13
2018-06-28T01:49:29.665Z,21.77
2018-06-28T01:51:58.680Z,25.13
2018-06-28T01:54:27.693Z,23.40
2018-06-28T01:56:56.754Z,21.87
2018-06-28T01:59:25.782Z,20.07
2018-06-28T02:01:54.859Z,23.63
2018-06-28T02:04:24.352Z,23.57
2018-06-28T02:06:53.047Z,23.93
2018-06-28T02:09:22.168Z,22.93
2018-06-28T02:11:51.179Z,24.00
2018-06-28T02:14:20.224Z,24.47
2018-06-28T02:16:49.264Z,21.90
2018-06-28T02:19:18.272Z,23.20
2018-06-28T02:21:47.308Z,21.80
2018-06-28T02:24:16.340Z,24.07
2018-06-28T02:26:45.368Z,25.40
2018-06-28T02:29:14.383Z,25.93
2018-06-28T02:31:43.384Z,24.80
2018-06-28T02:34:12.432Z,27.07
2018-06-28T02:36:41.683Z,25.00
2018-06-28T02:39:10.421Z,26.20
2018-06-28T02:41:39.359Z,26.03
2018-06-28T02:44:08.391Z,26.67
2018-06-28T02:46:37.531Z,28.37
2018-06-28T02:49:06.235Z,25.53
2018-06-28T02:51:35.196Z,26.57
2018-06-28T02:54:04.171Z,26.10
2018-06-28T02:56:33.155Z,28.20
2018-06-28T02:59:02.180Z,30.20
2018-06-28T03:01:31.188Z,29.30
2018-06-28T03:04:00.089Z,30.27
2018-06-28T03:06:29.131Z,30.03
2018-06-28T03:08:58.199Z,30.43
2018-06-28T03:11:27.241Z,30.43
2018-06-28T03:13:56.284Z,29.07
2018-06-28T03:16:25.322Z,28.03
2018-06-28T03:18:54.454Z,23.90
2018-06-28T03:21:23.172Z,30.90
2018-06-28T03:23:52.116Z,25.43
2018-06-28T03:26:21.126Z,29.83
2018-06-28T03:28:50.128Z,31.47
2018-06-28T03:31:19.188Z,31.00
2018-06-28T03:33:48.240Z,30.50
2018-06-28T03:36:17.276Z,28.87
2018-06-28T03:38:46.332Z,30.70
2018-06-28T03:41:15.384Z,29.37
2018-06-28T03:43:44.086Z,29.23
2018-06-28T03:46:13.067Z,30.90
2018-06-28T03:48:41.772Z,33.77
2018-06-28T03:51:10.702Z,31.30
2018-06-28T03:53:39.916Z,30.17
2018-06-28T03:56:08.996Z,31.00
2018-06-28T03:58:38.019Z,29.00
2018-06-28T04:01:07.056Z,32.03
2018-06-28T04:03:36.104Z,30.27
2018-06-28T04:06:05.556Z,29.37
2018-06-28T04:08:34.596Z,30.67
2018-06-28T04:11:03.704Z,29.27
2018-06-28T04:13:32.704Z,30.00
2018-06-28T04:16:01.739Z,30.07
2018-06-28T04:18:30.474Z,28.93
2018-06-28T04:20:59.427Z,28.63
2018-06-28T04:23:28.471Z,29.43
2018-06-28T04:25:57.543Z,28.73
2018-06-28T04:28:26.600Z,29.90
2018-06-28T04:30:55.616Z,27.87
2018-06-28T04:33:24.343Z,28.03
2018-06-28T04:35:53.295Z,27.17
2018-06-28T04:38:22.332Z,28.27
2018-06-28T04:40:51.399Z,26.73
2018-06-28T04:43:20.380Z,27.00
2018-06-28T04:45:49.716Z,26.27
2018-06-28T04:48:18.750Z,26.10
2018-06-28T04:50:47.737Z,27.27
2018-06-28T04:53:16.772Z,27.37
2018-06-28T04:55:45.812Z,27.40
2018-06-28T04:58:14.976Z,27.30
2018-06-28T05:00:44.004Z,26.33
2018-06-28T05:03:13.052Z,26.60
2018-06-28T05:05:42.121Z,24.03
2018-06-28T05:08:11.128Z,25.37
2018-06-28T05:10:40.140Z,22.33
2018-06-28T05:13:09.177Z,21.67
2018-06-28T05:15:38.264Z,24.37
2018-06-28T05:18:07.265Z,25.67
2018-06-28T05:20:36.303Z,24.33
2018-06-28T05:23:05.413Z,26.27
2018-06-28T05:25:34.436Z,23.43
2018-06-28T05:28:03.452Z,24.23
2018-06-28T05:30:32.500Z,23.67
2018-06-28T05:33:01.822Z,24.00
2018-06-28T05:35:30.856Z,21.37
2018-06-28T05:37:59.899Z,22.40
2018-06-28T05:40:28.923Z,20.23
2018-06-28T05:42:57.654Z,22.63
2018-06-28T05:45:26.283Z,25.17
2018-06-28T05:47:55.273Z,23.17
2018-06-28T05:50:24.020Z,22.27
2018-06-28T05:52:53.849Z,21.53
2018-06-28T05:55:22.870Z,22.87
2018-06-28T05:57:51.903Z,21.77
2018-06-28T06:00:20.913Z,20.67
2018-06-28T06:02:50.156Z,20.23
2018-06-28T06:05:19.196Z,20.97
2018-06-28T06:07:47.903Z,21.00
2018-06-28T06:10:16.930Z,20.93
2018-06-28T06:12:46.007Z,18.17
2018-06-28T06:15:14.956Z,20.87
2018-06-28T06:17:44.073Z,18.30
2018-06-28T06:20:13.172Z,17.93
2018-06-28T06:22:42.140Z,19.23
2018-06-28T06:25:11.166Z,16.77
2018-06-28T06:27:40.084Z,16.90
2018-06-28T06:30:09.924Z,16.00
2018-06-28T06:32:39.003Z,15.67
2018-06-28T06:35:08.052Z,15.30
2018-06-28T06:37:36.768Z,15.83
2018-06-28T06:40:05.780Z,16.87
2018-06-28T06:42:34.869Z,15.53
2018-06-28T06:45:04.517Z,16.67
2018-06-28T06:47:33.568Z,15.63
2018-06-28T06:50:03.178Z,15.30
2018-06-28T06:52:32.199Z,14.63
2018-06-28T06:55:01.267Z,13.43
2018-06-28T06:57:30.315Z,14.20
2018-06-28T06:59:59.356Z,14.17
2018-06-28T07:02:28.469Z,15.00
2018-06-28T07:04:57.829Z,12.37
2018-06-28T07:07:26.868Z,12.43
2018-06-28T07:09:55.909Z,13.47
2018-06-28T07:12:24.956Z,12.73
2018-06-28T07:14:53.984Z,13.33
2018-06-28T07:17:23.017Z,12.33
2018-06-28T07:19:52.066Z,11.73
2018-06-28T07:22:21.150Z,11.90
2018-06-28T07:24:50.168Z,10.23
2018-06-28T07:27:19.212Z,11.43
2018-06-28T07:29:48.293Z,10.33
2018-06-28T07:32:17.020Z,10.47
2018-06-28T07:34:45.952Z,11.47
2018-06-28T07:37:15.009Z,12.20
2018-06-28T07:39:44.092Z,10.77
2018-06-28T07:42:13.239Z,9.80
2018-06-28T07:44:42.292Z,10.50
2018-06-28T07:47:11.333Z,10.27
2018-06-28T07:49:40.053Z,11.07
2018-06-28T07:52:09.008Z,11.03
2018-06-28T07:54:38.037Z,9.80
2018-06-28T07:57:07.075Z,9.60
2018-06-28T07:59:36.175Z,10.00
2018-06-28T08:02:05.234Z,9.30
2018-06-28T08:04:34.248Z,8.47
2018-06-28T08:07:03.313Z,9.13
2018-06-28T08:09:32.341Z,10.47
2018-06-28T08:12:01.512Z,9.00
2018-06-28T08:14:30.567Z,7.87
2018-06-28T08:16:59.832Z,8.57
2018-06-28T08:19:28.587Z,9.10
2018-06-28T08:21:57.238Z,8.60
2018-06-28T08:24:26.501Z,8.60
2018-06-28T08:26:55.279Z,9.50
2018-06-28T08:29:24.396Z,9.40
2018-06-28T08:31:53.115Z,9.17
2018-06-28T08:34:22.148Z,9.13
2018-06-28T08:36:51.547Z,9.20
2018-06-28T08:39:20.712Z,9.43
2018-06-28T08:41:49.765Z,7.70
2018-06-28T08:44:18.813Z,8.10
2018-06-28T08:46:47.519Z,7.77
2018-06-28T08:49:16.492Z,8.50
2018-06-28T08:51:45.207Z,8.43
2018-06-28T08:54:14.167Z,8.20
2018-06-28T08:56:43.183Z,9.20
2018-06-28T08:59:11.841Z,8.80
2018-06-28T09:01:40.474Z,8.40
2018-06-28T09:04:09.428Z,8.07
2018-06-28T09:06:38.495Z,8.90
2018-06-28T09:09:08.021Z,8.37
2018-06-28T09:11:37.051Z,7.43
2018-06-28T09:14:06.019Z,7.50
2018-06-28T09:16:35.383Z,8.17
2018-06-28T09:19:04.407Z,8.87
2018-06-28T09:21:33.021Z,7.57
2018-06-28T09:24:01.698Z,6.53
2018-06-28T09:26:30.660Z,6.97
2018-06-28T09:28:59.445Z,7.03
2018-06-28T09:31:28.801Z,6.77
2018-06-28T09:33:57.534Z,7.23
2018-06-28T09:36:26.695Z,8.03
2018-06-28T09:38:55.818Z,7.27
2018-06-28T09:41:24.912Z,6.67
2018-06-28T09:43:53.597Z,6.80
2018-06-28T09:46:22.580Z,7.60
2018-06-28T09:48:51.299Z,7.33
2018-06-28T09:51:19.925Z,7.43
2018-06-28T09:53:48.990Z,6.40
2018-06-28T09:56:17.936Z,6.43
2018-06-28T09:58:46.947Z,7.30
2018-06-28T10:01:15.704Z,6.93
2018-06-28T10:03:44.592Z,7.53
2018-06-28T10:06:13.248Z,6.60
2018-06-28T10:08:42.478Z,6.80
2018-06-28T10:11:11.166Z,5.90
2018-06-28T10:13:40.331Z,6.80
2018-06-28T10:16:09.411Z,6.33
2018-06-28T10:18:38.367Z,6.07
2018-06-28T10:21:07.311Z,6.00
2018-06-28T10:23:36.343Z,6.33
2018-06-28T10:26:05.665Z,6.57
2018-06-28T10:28:34.742Z,6.70
2018-06-28T10:31:03.506Z,6.53
2018-06-28T10:33:32.167Z,7.13
2018-06-28T10:36:00.772Z,6.83
2018-06-28T10:38:29.728Z,5.33
2018-06-28T10:40:58.859Z,5.57
2018-06-28T10:43:27.784Z,6.87
2018-06-28T10:45:57.695Z,5.83
2018-06-28T10:48:27.406Z,6.67
2018-06-28T10:50:56.496Z,6.20
2018-06-28T10:53:25.837Z,6.67
2018-06-28T10:55:54.854Z,6.57
2018-06-28T10:58:23.876Z,6.50
2018-06-28T11:00:52.959Z,7.20
2018-06-28T11:03:21.972Z,6.10
2018-06-28T11:05:52.023Z,6.20
2018-06-28T11:08:21.132Z,7.00
2018-06-28T11:10:50.718Z,6.87
2018-06-28T11:13:20.319Z,6.07
2018-06-28T11:15:50.345Z,6.67
2018-06-28T11:18:19.456Z,6.00
2018-06-28T11:20:48.746Z,5.80
2018-06-28T11:23:18.296Z,5.33
2018-06-28T11:25:47.719Z,6.27
2018-06-28T11:28:16.755Z,5.87
2018-06-28T11:30:46.376Z,6.07
2018-06-28T11:33:15.380Z,6.00
2018-06-28T11:35:44.644Z,5.90
2018-06-28T11:38:13.348Z,5.67
2018-06-28T11:40:41.988Z,5.43
2018-06-28T11:43:10.910Z,5.93
2018-06-28T11:45:39.977Z,6.67
2018-06-28T11:48:09.064Z,5.27
2018-06-28T11:50:38.132Z,5.23
2018-06-28T11:53:07.164Z,5.07
2018-06-28T11:55:36.259Z,5.33
2018-06-28T11:58:05.604Z,3.70
2018-06-28T12:00:34.651Z,3.90
2018-06-28T12:03:03.372Z,11.57
2018-06-28T12:05:32.371Z,4.27
2018-06-28T12:08:01.341Z,4.20
2018-06-28T12:10:30.377Z,4.60
2018-06-28T12:12:59.094Z,4.73
2018-06-28T12:15:28.107Z,4.57
2018-06-28T12:17:56.761Z,4.30
2018-06-28T12:20:25.743Z,4.17
2018-06-28T12:22:54.844Z,4.40
2018-06-28T12:25:23.606Z,4.53
2018-06-28T12:27:52.519Z,4.23
2018-06-28T12:30:21.567Z,4.50
2018-06-28T12:32:50.639Z,5.17
2018-06-28T12:35:19.655Z,5.00
2018-06-28T12:37:48.672Z,5.10
2018-06-28T12:40:17.691Z,4.67
2018-06-28T12:42:46.869Z,4.43
2018-06-28T12:45:17.966Z,5.50
2018-06-28T12:47:58.807Z,4.13
2018-06-28T12:50:28.226Z,3.80
2018-06-28T12:52:59.437Z,4.63
2018-06-28T12:56:32.772Z,4.77
2018-06-28T12:59:03.474Z,5.40
2018-06-28T13:01:32.602Z,4.70
2018-06-28T13:04:01.667Z,4.83
2018-06-28T13:06:30.744Z,5.00
2018-06-28T13:09:00.221Z,3.90
2018-06-28T13:11:29.499Z,4.33
2018-06-28T13:13:58.204Z,4.50
2018-06-28T13:16:27.829Z,4.47
2018-06-28T13:18:56.807Z,4.00
2018-06-28T13:21:25.841Z,3.47
2018-06-28T13:23:54.871Z,3.20
2018-06-28T13:26:24.372Z,4.00
2018-06-28T13:28:53.383Z,3.40
2018-06-28T13:31:22.111Z,2.63
2018-06-28T13:33:50.742Z,2.80
2018-06-28T13:36:19.647Z,3.10
2018-06-28T13:38:48.715Z,2.63
2018-06-28T13:41:17.636Z,3.07
2018-06-28T13:43:46.091Z,2.60
2018-06-28T13:46:14.789Z,2.37
2018-06-28T13:48:43.671Z,2.80
2018-06-28T13:51:12.758Z,2.77
2018-06-28T13:53:41.449Z,2.30
2018-06-28T13:56:10.415Z,2.50
2018-06-28T13:58:39.567Z,2.37
2018-06-28T14:01:08.631Z,2.40
2018-06-28T14:03:37.639Z,2.10
2018-06-28T14:06:06.359Z,2.00
2018-06-28T14:08:35.315Z,2.40
2018-06-28T14:11:04.060Z,1.93
2018-06-28T14:13:33.024Z,2.00
2018-06-28T14:16:02.040Z,2.10
2018-06-28T14:18:31.039Z,1.80
2018-06-28T14:21:00.098Z,1.83
2018-06-28T14:23:28.816Z,2.50
2018-06-28T14:25:57.813Z,2.00
2018-06-28T14:28:26.871Z,1.90
2018-06-28T14:30:55.912Z,1.80
2018-06-28T14:33:24.984Z,1.40
2018-06-28T14:35:54.005Z,1.47
2018-06-28T14:38:23.036Z,1.60
2018-06-28T14:40:52.085Z,2.03
2018-06-28T14:43:21.096Z,1.60
2018-06-28T14:45:50.119Z,1.53
2018-06-28T14:48:19.152Z,2.10
2018-06-28T14:50:48.179Z,2.10
2018-06-28T14:53:17.226Z,1.80
2018-06-28T14:55:46.053Z,1.90
2018-06-28T14:58:15.021Z,1.87
2018-06-28T15:00:44.219Z,2.50
2018-06-28T15:03:13.419Z,1.80
2018-06-28T15:05:42.503Z,1.90
2018-06-28T15:08:12.093Z,2.77
2018-06-28T15:10:41.141Z,2.00
2018-06-28T15:13:10.179Z,1.90
2018-06-28T15:15:39.215Z,2.20
2018-06-28T15:18:08.254Z,1.90
2018-06-28T15:20:36.961Z,2.00
2018-06-28T15:23:06.243Z,1.70
2018-06-28T15:25:35.421Z,2.00
2018-06-28T15:28:04.483Z,2.20
2018-06-28T15:30:33.895Z,2.00
2018-06-28T15:33:02.655Z,1.87
2018-06-28T15:35:31.866Z,1.80
2018-06-28T15:38:00.917Z,1.80
2018-06-28T15:40:29.929Z,2.07
2018-06-28T15:42:58.655Z,1.77
2018-06-28T15:45:27.641Z,1.87
2018-06-28T15:47:56.691Z,1.90
2018-06-28T15:50:25.916Z,2.00
2018-06-28T15:52:54.977Z,2.03
2018-06-28T15:55:24.032Z,1.80
2018-06-28T15:57:53.236Z,2.17
2018-06-28T16:00:22.340Z,1.90
2018-06-28T16:02:51.378Z,1.63
2018-06-28T16:05:20.182Z,2.23
2018-06-28T16:07:49.448Z,1.90
2018-06-28T16:10:18.478Z,2.00
2018-06-28T16:12:47.184Z,2.07
2018-06-28T16:15:16.175Z,1.90
2018-06-28T16:17:45.215Z,2.07
2018-06-28T16:20:14.110Z,1.90
2018-06-28T16:22:42.698Z,1.70
2018-06-28T16:25:11.622Z,2.07
2018-06-28T16:27:40.678Z,1.80
2018-06-28T16:30:09.404Z,1.90
2018-06-28T16:32:38.320Z,1.90
2018-06-28T16:35:07.348Z,1.80
2018-06-28T16:37:36.395Z,1.63
2018-06-28T16:40:05.491Z,1.67
2018-06-28T16:42:34.219Z,1.50
2018-06-28T16:45:03.200Z,2.27
2018-06-28T16:47:32.217Z,1.77
2018-06-28T16:50:01.285Z,1.67
2018-06-28T16:52:30.304Z,2.50
2018-06-28T16:54:59.020Z,2.33
2018-06-28T16:57:27.974Z,1.70
2018-06-28T16:59:56.988Z,2.10
2018-06-28T17:02:26.040Z,2.03
2018-06-28T17:04:55.076Z,2.10
2018-06-28T17:07:23.972Z,2.53
2018-06-28T17:09:52.926Z,2.43
2018-06-28T17:12:21.652Z,2.47
2018-06-28T17:14:50.625Z,2.33
2018-06-28T17:17:19.708Z,2.40
2018-06-28T17:19:48.747Z,2.30
2018-06-28T17:22:17.784Z,2.80
2018-06-28T17:24:46.814Z,2.60
2018-06-28T17:27:15.840Z,2.10
2018-06-28T17:29:44.544Z,3.07
2018-06-28T17:32:13.512Z,2.30
2018-06-28T17:34:42.262Z,2.60
2018-06-28T17:37:10.958Z,2.43
2018-06-28T17:39:46.070Z,3.50
2018-06-28T17:42:14.788Z,3.40
2018-06-28T17:44:43.462Z,2.80
2018-06-28T17:47:12.247Z,3.57
2018-06-28T17:49:41.027Z,3.13
2018-06-28T17:52:09.963Z,3.20
2018-06-28T17:54:38.979Z,3.40
2018-06-28T17:59:42.619Z,3.40
2018-06-28T18:02:11.531Z,3.30
2018-06-28T18:04:40.270Z,3.03
2018-06-28T18:07:08.866Z,2.90
2018-06-28T18:09:37.499Z,3.13
2018-06-28T18:12:06.119Z,3.00
2018-06-28T18:14:35.083Z,2.80
2018-06-28T18:17:03.832Z,2.70
2018-06-28T18:19:32.908Z,2.80
2018-06-28T18:24:36.652Z,3.17
2018-06-28T18:27:05.290Z,2.80
2018-06-28T18:29:34.293Z,2.90
2018-06-28T18:32:03.368Z,3.00
2018-06-28T18:34:32.663Z,3.03
2018-06-28T18:37:01.689Z,2.93
2018-06-28T18:39:30.431Z,2.73
2018-06-28T18:41:59.099Z,3.10
2018-06-28T18:44:27.743Z,2.80
2018-06-28T18:46:56.720Z,2.60
2018-06-28T18:49:25.727Z,2.77
2018-06-28T18:51:54.427Z,2.97
2018-06-28T18:54:23.409Z,3.27
2018-06-28T18:56:52.118Z,2.83
2018-06-28T18:59:20.744Z,2.60
2018-06-28T19:01:49.392Z,2.57
2018-06-28T19:04:18.040Z,2.40
2018-06-28T19:06:47.200Z,2.47
2018-06-28T19:09:15.859Z,2.20
2018-06-28T19:11:44.785Z,2.33
2018-06-28T19:14:19.201Z,2.30
2018-06-28T19:16:53.419Z,2.00
2018-06-28T19:19:22.472Z,2.00
2018-06-28T19:21:56.901Z,2.10
2018-06-28T19:24:26.155Z,2.30
2018-06-28T19:26:55.235Z,1.90
2018-06-28T19:29:29.583Z,1.70
2018-06-28T19:32:03.903Z,2.03
2018-06-28T19:34:32.942Z,2.10
2018-06-28T19:37:01.635Z,2.00
2018-06-28T19:39:36.454Z,1.80
2018-06-28T19:42:10.731Z,1.90
2018-06-28T19:44:39.815Z,1.53
2018-06-28T19:47:08.858Z,2.10
2018-06-28T19:49:43.135Z,1.70
2018-06-28T19:52:17.633Z,1.70
2018-06-28T19:54:46.334Z,2.20
2018-06-28T19:57:15.280Z,2.47
2018-06-28T19:59:47.135Z,2.20
2018-06-28T20:02:21.726Z,2.10
2018-06-28T20:04:51.167Z,2.30
2018-06-28T20:07:20.278Z,2.13
2018-06-28T20:09:49.299Z,2.23
2018-06-28T20:12:23.687Z,2.40
2018-06-28T20:14:57.793Z,2.50
2018-06-28T20:17:31.984Z,2.40
2018-06-28T20:20:06.303Z,2.30
2018-06-28T20:22:35.356Z,2.40
2018-06-28T20:25:04.482Z,2.47
2018-06-28T20:27:38.451Z,2.40
2018-06-28T20:30:12.620Z,2.53
2018-06-28T20:32:46.924Z,2.50
2018-06-28T20:35:15.992Z,2.43
2018-06-28T20:37:45.272Z,2.27
2018-06-28T20:40:14.344Z,2.40
2018-06-28T20:42:43.416Z,2.20
2018-06-28T20:45:12.564Z,2.50
2018-06-28T20:47:41.512Z,2.33
2018-06-28T20:50:10.807Z,2.30
2018-06-28T20:52:39.850Z,2.50
2018-06-28T20:55:09.144Z,2.17
2018-06-28T20:57:39.117Z,2.10
2018-06-28T21:00:09.496Z,2.30
2018-06-28T21:02:39.083Z,2.33
2018-06-28T21:05:08.128Z,2.50
2018-06-28T21:07:37.154Z,2.40
2018-06-28T21:10:06.481Z,2.47
2018-06-28T21:12:35.472Z,2.57
2018-06-28T21:15:04.758Z,2.33
2018-06-28T21:17:33.822Z,2.43
2018-06-28T21:20:02.827Z,2.30
2018-06-28T21:22:32.210Z,2.27
2018-06-28T21:25:01.287Z,2.47
2018-06-28T21:27:30.307Z,2.40
2018-06-28T21:29:59.396Z,2.57
2018-06-28T21:32:28.596Z,2.80
2018-06-28T21:34:57.595Z,2.83
2018-06-28T21:37:26.588Z,2.60
2018-06-28T21:39:56.167Z,2.50
2018-06-28T21:42:25.245Z,2.97
2018-06-28T21:44:54.246Z,2.73
2018-06-28T21:47:23.303Z,2.73
2018-06-28T21:49:52.340Z,2.83
2018-06-28T21:52:22.348Z,2.73
2018-06-28T21:54:51.400Z,2.37
2018-06-28T21:57:20.439Z,3.20
2018-06-28T21:59:49.784Z,2.67
2018-06-28T22:02:18.773Z,3.00
2018-06-28T22:04:47.501Z,2.70
2018-06-28T22:07:16.478Z,2.87
2018-06-28T22:09:45.490Z,3.00
2018-06-28T22:12:14.517Z,2.70
2018-06-28T22:14:43.563Z,3.30
2018-06-28T22:17:12.580Z,3.47
2018-06-28T22:19:41.614Z,3.30
2018-06-28T22:22:10.696Z,3.20
2018-06-28T22:24:40.115Z,3.00
2018-06-28T22:27:09.151Z,3.17
2018-06-28T22:29:38.143Z,3.67
2018-06-28T22:32:07.244Z,3.30
2018-06-28T22:34:36.271Z,3.77
2018-06-28T22:37:05.612Z,3.37
2018-06-28T22:39:34.287Z,3.53
2018-06-28T22:42:03.242Z,3.67
2018-06-28T22:44:31.983Z,3.43
2018-06-28T22:47:00.907Z,4.33
2018-06-28T22:49:29.937Z,3.80
2018-06-28T22:51:58.969Z,3.30
2018-06-28T22:54:28.639Z,3.80
2018-06-28T22:56:57.700Z,3.67
2018-06-28T22:59:26.753Z,3.50
2018-06-28T23:01:55.763Z,3.93
2018-06-28T23:04:24.667Z,3.93
2018-06-28T23:06:53.763Z,3.87
2018-06-28T23:09:22.645Z,3.93
2018-06-28T23:11:51.923Z,3.90
2018-06-28T23:14:20.964Z,3.60
2018-06-28T23:16:49.738Z,4.10
2018-06-28T23:19:18.711Z,4.07
2018-06-28T23:21:47.680Z,3.90
2018-06-28T23:24:16.719Z,4.10
2018-06-28T23:26:45.742Z,4.20
2018-06-28T23:29:14.823Z,4.20
2018-06-28T23:31:44.105Z,4.20
2018-06-28T23:34:12.808Z,4.47
2018-06-28T23:36:41.779Z,4.37
2018-06-28T23:39:11.871Z,4.57
2018-06-28T23:41:40.608Z,4.00
2018-06-28T23:44:09.555Z,4.93
2018-06-28T23:46:38.624Z,4.90
2018-06-28T23:49:07.763Z,4.63
2018-06-28T23:51:36.895Z,3.87
2018-06-28T23:54:05.979Z,4.90
2018-06-28T23:56:35.622Z,4.57
2018-06-28T23:59:04.635Z,4.47
